This is the latest recevied weather packets stored in our database for station/object AE6EO. If no packets are shown the sender has not sent any weather packets the latest 10 day(s).
| Time | Temp. | Humidity | Pressure | Rain* | Wind** | Luminosity | Snow |
|---|---|---|---|---|---|---|---|
| 1777101916 | 13.33° C | 73% | 1013.3 hPa | 0 mm | - | - | - |
| 1777101315 | 13.33° C | 73% | 1013.3 hPa | 0 mm | - | - | - |
| 1777098316 | 13.89° C | 73% | 1013.4 hPa | 0 mm | - | - | - |
| 1777097716 | 13.33° C | 73% | 1013.4 hPa | 0 mm | - | - | - |
| 1777095917 | 13.89° C | 74% | 1013.6 hPa | 0 mm | - | - | - |
| 1777095315 | 13.33° C | 74% | 1013.7 hPa | 0 mm | - | - | - |
| 1777092917 | 13.33° C | 75% | 1013.8 hPa | 0 mm | - | - | - |
| 1777085715 | 14.44° C | 67% | 1012.6 hPa | 0 mm | - | - | - |
| 1777083335 | 15.56° C | 64% | 1012.4 hPa | 0 mm | - | - | - |
| 1777082116 | 16.11° C | 62% | 1012.6 hPa | 0 mm | - | - | - |
| 1777079116 | 17.22° C | 59% | 1012.8 hPa | 0 mm | - | - | - |
| 1777077916 | 17.78° C | 58% | 1012.8 hPa | 0 mm | - | - | - |
| 1777077338 | 17.78° C | 58% | 1012.7 hPa | 0 mm | - | - | - |
| 1777075515 | 18.89° C | 56% | 1012.7 hPa | 0 mm | - | - | - |
| 1777074917 | 18.89° C | 56% | 1012.6 hPa | 0 mm | - | - | - |
| 1777074316 | 19.44° C | 55% | 1012.6 hPa | 0 mm | - | - | - |
| 1777073715 | 20° C | 54% | 1012.6 hPa | 0 mm | - | - | - |
| 1777071916 | 20° C | 56% | 1012.5 hPa | 0 mm | - | - | - |
| 1777066515 | 18.89° C | 61% | 1013.6 hPa | 0 mm | - | - | - |
| 1777065317 | 18.89° C | 61% | 1013.7 hPa | 0 mm | - | - | - |
| 1777064737 | 18.89° C | 61% | 1013.7 hPa | 0 mm | - | - | - |
| 1777062917 | 18.33° C | 60% | 1013.9 hPa | 0 mm | - | - | - |
| 1777062319 | 18.33° C | 61% | 1014 hPa | 0 mm | - | - | - |
| 1777060516 | 17.78° C | 61% | 1014.2 hPa | 0 mm | - | - | - |
| 1777053935 | 16.67° C | 63% | 1014.9 hPa | 0 mm | - | - | - |
* Rain latest hour (hover to see other rain measurements)
** Current wind speed in m/s (hover to see current wind gust speed)